sensor_id;sensor_type;location;lat;lon;timestamp;pressure;altitude;pressure_sealevel;temperature;humidity
36190;BME280;22232;50.914;13.858;2024-01-15T00:02:08;95880.47;;;0.61;100.00
36190;BME280;22232;50.914;13.858;2024-01-15T00:04:39;95890.75;;;0.62;100.00
36190;BME280;22232;50.914;13.858;2024-01-15T00:07:08;95885.44;;;0.69;100.00
36190;BME280;22232;50.914;13.858;2024-01-15T00:09:36;95890.69;;;0.69;100.00
36190;BME280;22232;50.914;13.858;2024-01-15T00:12:05;95884.44;;;0.70;100.00
36190;BME280;22232;50.914;13.858;2024-01-15T00:14:32;95892.16;;;0.65;100.00
36190;BME280;22232;50.914;13.858;2024-01-15T00:17:00;95876.41;;;0.65;100.00
36190;BME280;22232;50.914;13.858;2024-01-15T00:19:28;95875.53;;;0.71;100.00
36190;BME280;22232;50.914;13.858;2024-01-15T00:21:55;95876.72;;;0.75;100.00
36190;BME280;22232;50.914;13.858;2024-01-15T00:24:24;95881.66;;;0.65;100.00
36190;BME280;22232;50.914;13.858;2024-01-15T00:26:52;95892.84;;;0.54;100.00
36190;BME280;22232;50.914;13.858;2024-01-15T00:29:21;95899.31;;;0.51;100.00
36190;BME280;22232;50.914;13.858;2024-01-15T00:31:49;95894.72;;;0.47;100.00
36190;BME280;22232;50.914;13.858;2024-01-15T00:34:16;95887.28;;;0.43;100.00
36190;BME280;22232;50.914;13.858;2024-01-15T00:36:44;95891.31;;;0.39;100.00
36190;BME280;22232;50.914;13.858;2024-01-15T00:39:12;95886.09;;;0.39;100.00
36190;BME280;22232;50.914;13.858;2024-01-15T00:41:40;95895.66;;;0.27;100.00
36190;BME280;22232;50.914;13.858;2024-01-15T00:44:07;95894.78;;;0.40;100.00
36190;BME280;22232;50.914;13.858;2024-01-15T00:46:45;95894.19;;;0.38;100.00
36190;BME280;22232;50.914;13.858;2024-01-15T00:49:14;95890.69;;;0.44;100.00
36190;BME280;22232;50.914;13.858;2024-01-15T00:51:41;95893.38;;;0.37;100.00
36190;BME280;22232;50.914;13.858;2024-01-15T00:54:09;95887.59;;;0.29;100.00
36190;BME280;22232;50.914;13.858;2024-01-15T00:56:37;95868.81;;;0.32;100.00
36190;BME280;22232;50.914;13.858;2024-01-15T00:59:05;95869.25;;;0.29;100.00
36190;BME280;22232;50.914;13.858;2024-01-15T01:01:33;95878.06;;;0.34;100.00
36190;BME280;22232;50.914;13.858;2024-01-15T01:04:01;95881.75;;;0.27;100.00
36190;BME280;22232;50.914;13.858;2024-01-15T01:06:28;95882.81;;;0.19;100.00
36190;BME280;22232;50.914;13.858;2024-01-15T01:09:00;95881.84;;;0.13;100.00
36190;BME280;22232;50.914;13.858;2024-01-15T01:11:27;95881.47;;;0.10;100.00
36190;BME280;22232;50.914;13.858;2024-01-15T01:13:55;95873.38;;;0.11;100.00
36190;BME280;22232;50.914;13.858;2024-01-15T01:16:24;95885.09;;;0.09;100.00
36190;BME280;22232;50.914;13.858;2024-01-15T01:18:51;95876.28;;;0.03;100.00
36190;BME280;22232;50.914;13.858;2024-01-15T01:21:19;95870.81;;;0.05;100.00
36190;BME280;22232;50.914;13.858;2024-01-15T01:23:47;95868.00;;;-0.01;100.00
36190;BME280;22232;50.914;13.858;2024-01-15T01:26:16;95869.59;;;0.07;100.00
36190;BME280;22232;50.914;13.858;2024-01-15T01:28:44;95863.97;;;0.04;100.00
36190;BME280;22232;50.914;13.858;2024-01-15T01:31:12;95867.59;;;0.03;100.00
36190;BME280;22232;50.914;13.858;2024-01-15T01:33:40;95857.28;;;0.08;100.00
36190;BME280;22232;50.914;13.858;2024-01-15T01:36:09;95852.03;;;0.08;100.00
36190;BME280;22232;50.914;13.858;2024-01-15T01:38:37;95855.09;;;0.05;100.00
36190;BME280;22232;50.914;13.858;2024-01-15T01:41:05;95845.22;;;0.07;100.00
36190;BME280;22232;50.914;13.858;2024-01-15T01:43:33;95847.28;;;-0.02;100.00
36190;BME280;22232;50.914;13.858;2024-01-15T01:46:01;95842.78;;;0.05;100.00
36190;BME280;22232;50.914;13.858;2024-01-15T01:48:31;95834.13;;;0.05;100.00
36190;BME280;22232;50.914;13.858;2024-01-15T01:51:02;95827.97;;;0.17;100.00
36190;BME280;22232;50.914;13.858;2024-01-15T01:53:33;95827.59;;;0.14;100.00
36190;BME280;22232;50.914;13.858;2024-01-15T01:56:02;95814.97;;;0.04;100.00
36190;BME280;22232;50.914;13.858;2024-01-15T01:58:31;95811.94;;;0.07;100.00
36190;BME280;22232;50.914;13.858;2024-01-15T02:00:59;95819.41;;;0.04;100.00
36190;BME280;22232;50.914;13.858;2024-01-15T02:03:27;95818.03;;;0.01;100.00
36190;BME280;22232;50.914;13.858;2024-01-15T02:05:56;95796.69;;;-0.03;100.00
36190;BME280;22232;50.914;13.858;2024-01-15T02:08:25;95806.19;;;-0.08;100.00
36190;BME280;22232;50.914;13.858;2024-01-15T02:10:53;95805.09;;;0.06;100.00
36190;BME280;22232;50.914;13.858;2024-01-15T02:13:20;95814.56;;;0.07;100.00
36190;BME280;22232;50.914;13.858;2024-01-15T02:15:48;95812.13;;;0.06;100.00
36190;BME280;22232;50.914;13.858;2024-01-15T02:18:16;95807.13;;;0.04;100.00
36190;BME280;22232;50.914;13.858;2024-01-15T02:20:44;95798.81;;;0.07;100.00
36190;BME280;22232;50.914;13.858;2024-01-15T02:23:13;95802.63;;;0.11;100.00
36190;BME280;22232;50.914;13.858;2024-01-15T02:25:46;95788.34;;;0.07;100.00
36190;BME280;22232;50.914;13.858;2024-01-15T02:28:16;95784.44;;;0.16;100.00
36190;BME280;22232;50.914;13.858;2024-01-15T02:30:44;95787.47;;;0.13;100.00
36190;BME280;22232;50.914;13.858;2024-01-15T02:33:12;95785.72;;;0.07;100.00
36190;BME280;22232;50.914;13.858;2024-01-15T02:35:41;95773.66;;;-0.01;100.00
36190;BME280;22232;50.914;13.858;2024-01-15T02:38:08;95786.50;;;0.08;100.00
36190;BME280;22232;50.914;13.858;2024-01-15T02:40:36;95772.06;;;-0.02;100.00
36190;BME280;22232;50.914;13.858;2024-01-15T02:43:04;95774.75;;;-0.08;100.00
36190;BME280;22232;50.914;13.858;2024-01-15T02:45:31;95760.84;;;-0.09;100.00
36190;BME280;22232;50.914;13.858;2024-01-15T02:47:59;95763.91;;;-0.12;100.00
36190;BME280;22232;50.914;13.858;2024-01-15T02:50:27;95763.47;;;-0.09;100.00
36190;BME280;22232;50.914;13.858;2024-01-15T02:52:54;95766.88;;;-0.08;100.00
36190;BME280;22232;50.914;13.858;2024-01-15T02:55:22;95772.28;;;-0.03;100.00
36190;BME280;22232;50.914;13.858;2024-01-15T02:57:50;95759.22;;;-0.10;100.00
36190;BME280;22232;50.914;13.858;2024-01-15T03:00:17;95756.41;;;-0.08;100.00
36190;BME280;22232;50.914;13.858;2024-01-15T03:02:45;95772.13;;;-0.08;100.00
36190;BME280;22232;50.914;13.858;2024-01-15T03:05:15;95768.97;;;-0.17;100.00
36190;BME280;22232;50.914;13.858;2024-01-15T03:07:43;95764.84;;;-0.06;100.00
36190;BME280;22232;50.914;13.858;2024-01-15T03:10:11;95768.38;;;-0.19;100.00
36190;BME280;22232;50.914;13.858;2024-01-15T03:12:38;95775.69;;;-0.28;100.00
36190;BME280;22232;50.914;13.858;2024-01-15T03:15:06;95768.78;;;-0.22;100.00
36190;BME280;22232;50.914;13.858;2024-01-15T03:17:34;95763.97;;;-0.25;100.00
36190;BME280;22232;50.914;13.858;2024-01-15T03:20:02;95751.16;;;-0.33;100.00
36190;BME280;22232;50.914;13.858;2024-01-15T03:22:30;95755.31;;;-0.26;100.00
36190;BME280;22232;50.914;13.858;2024-01-15T03:24:58;95759.34;;;-0.23;100.00
36190;BME280;22232;50.914;13.858;2024-01-15T03:27:26;95756.50;;;-0.21;100.00
36190;BME280;22232;50.914;13.858;2024-01-15T03:29:53;95750.50;;;-0.29;100.00
36190;BME280;22232;50.914;13.858;2024-01-15T03:32:21;95762.38;;;-0.26;100.00
36190;BME280;22232;50.914;13.858;2024-01-15T03:34:49;95737.41;;;-0.29;100.00
36190;BME280;22232;50.914;13.858;2024-01-15T03:37:17;95756.78;;;-0.30;100.00
36190;BME280;22232;50.914;13.858;2024-01-15T03:39:44;95741.19;;;-0.18;100.00
36190;BME280;22232;50.914;13.858;2024-01-15T03:42:12;95738.38;;;-0.23;100.00
36190;BME280;22232;50.914;13.858;2024-01-15T03:44:41;95744.41;;;-0.22;100.00
36190;BME280;22232;50.914;13.858;2024-01-15T03:47:09;95751.66;;;-0.18;100.00
36190;BME280;22232;50.914;13.858;2024-01-15T03:49:37;95753.88;;;-0.21;100.00
36190;BME280;22232;50.914;13.858;2024-01-15T03:52:05;95753.19;;;-0.35;100.00
36190;BME280;22232;50.914;13.858;2024-01-15T03:54:32;95755.00;;;-0.36;100.00
36190;BME280;22232;50.914;13.858;2024-01-15T03:57:00;95747.41;;;-0.19;100.00
36190;BME280;22232;50.914;13.858;2024-01-15T03:59:27;95753.97;;;-0.35;100.00
36190;BME280;22232;50.914;13.858;2024-01-15T04:01:55;95753.22;;;-0.42;100.00
36190;BME280;22232;50.914;13.858;2024-01-15T04:04:23;95748.56;;;-0.40;100.00
36190;BME280;22232;50.914;13.858;2024-01-15T04:06:51;95741.72;;;-0.41;100.00
36190;BME280;22232;50.914;13.858;2024-01-15T04:09:18;95762.50;;;-0.46;100.00
36190;BME280;22232;50.914;13.858;2024-01-15T04:11:46;95743.44;;;-0.53;100.00
36190;BME280;22232;50.914;13.858;2024-01-15T04:14:14;95743.66;;;-0.61;100.00
36190;BME280;22232;50.914;13.858;2024-01-15T04:16:41;95751.53;;;-0.61;100.00
36190;BME280;22232;50.914;13.858;2024-01-15T04:19:09;95746.34;;;-0.68;100.00
36190;BME280;22232;50.914;13.858;2024-01-15T04:21:37;95746.28;;;-0.61;100.00
36190;BME280;22232;50.914;13.858;2024-01-15T04:24:05;95723.41;;;-0.73;100.00
36190;BME280;22232;50.914;13.858;2024-01-15T04:26:32;95733.53;;;-0.83;100.00
36190;BME280;22232;50.914;13.858;2024-01-15T04:29:00;95733.75;;;-0.84;100.00
36190;BME280;22232;50.914;13.858;2024-01-15T04:31:28;95725.91;;;-0.84;100.00
36190;BME280;22232;50.914;13.858;2024-01-15T04:33:56;95723.97;;;-1.02;100.00
36190;BME280;22232;50.914;13.858;2024-01-15T04:36:23;95718.75;;;-1.02;100.00
36190;BME280;22232;50.914;13.858;2024-01-15T04:38:51;95717.16;;;-1.03;100.00
36190;BME280;22232;50.914;13.858;2024-01-15T04:41:19;95719.91;;;-0.98;100.00
36190;BME280;22232;50.914;13.858;2024-01-15T04:43:47;95721.97;;;-1.00;100.00
36190;BME280;22232;50.914;13.858;2024-01-15T04:46:14;95735.47;;;-1.03;100.00
36190;BME280;22232;50.914;13.858;2024-01-15T04:48:42;95721.97;;;-1.07;100.00
36190;BME280;22232;50.914;13.858;2024-01-15T04:51:10;95735.88;;;-1.06;100.00
36190;BME280;22232;50.914;13.858;2024-01-15T04:53:38;95728.00;;;-1.00;100.00
36190;BME280;22232;50.914;13.858;2024-01-15T04:56:05;95735.84;;;-1.00;100.00
36190;BME280;22232;50.914;13.858;2024-01-15T04:58:33;95732.63;;;-1.02;100.00
36190;BME280;22232;50.914;13.858;2024-01-15T05:01:01;95746.28;;;-0.93;100.00
36190;BME280;22232;50.914;13.858;2024-01-15T05:03:29;95744.91;;;-1.02;100.00
36190;BME280;22232;50.914;13.858;2024-01-15T05:05:57;95751.31;;;-0.98;100.00
36190;BME280;22232;50.914;13.858;2024-01-15T05:08:26;95757.00;;;-1.08;100.00
36190;BME280;22232;50.914;13.858;2024-01-15T05:10:54;95754.59;;;-1.09;100.00
36190;BME280;22232;50.914;13.858;2024-01-15T05:13:21;95750.22;;;-1.16;100.00
36190;BME280;22232;50.914;13.858;2024-01-15T05:15:49;95741.56;;;-1.23;100.00
36190;BME280;22232;50.914;13.858;2024-01-15T05:18:17;95754.22;;;-1.20;100.00
36190;BME280;22232;50.914;13.858;2024-01-15T05:20:45;95746.38;;;-1.20;100.00
36190;BME280;22232;50.914;13.858;2024-01-15T05:23:13;95749.78;;;-1.12;100.00
36190;BME280;22232;50.914;13.858;2024-01-15T05:25:40;95746.75;;;-1.09;100.00
36190;BME280;22232;50.914;13.858;2024-01-15T05:28:08;95733.69;;;-1.16;100.00
36190;BME280;22232;50.914;13.858;2024-01-15T05:30:36;95741.41;;;-1.28;100.00
36190;BME280;22232;50.914;13.858;2024-01-15T05:33:04;95748.66;;;-1.30;100.00
36190;BME280;22232;50.914;13.858;2024-01-15T05:35:32;95748.66;;;-1.30;100.00
36190;BME280;22232;50.914;13.858;2024-01-15T05:37:59;95734.97;;;-1.32;100.00
36190;BME280;22232;50.914;13.858;2024-01-15T05:40:27;95723.91;;;-1.34;100.00
36190;BME280;22232;50.914;13.858;2024-01-15T05:42:55;95749.06;;;-1.33;100.00
36190;BME280;22232;50.914;13.858;2024-01-15T05:45:22;95738.94;;;-1.23;100.00
36190;BME280;22232;50.914;13.858;2024-01-15T05:47:50;95742.63;;;-1.37;100.00
36190;BME280;22232;50.914;13.858;2024-01-15T05:50:18;95741.59;;;-1.29;100.00
36190;BME280;22232;50.914;13.858;2024-01-15T05:52:46;95727.72;;;-1.30;100.00
36190;BME280;22232;50.914;13.858;2024-01-15T05:55:14;95743.59;;;-1.31;100.00
36190;BME280;22232;50.914;13.858;2024-01-15T05:57:41;95740.56;;;-1.28;100.00
36190;BME280;22232;50.914;13.858;2024-01-15T06:00:09;95748.22;;;-1.27;100.00
36190;BME280;22232;50.914;13.858;2024-01-15T06:02:38;95751.88;;;-1.28;100.00
36190;BME280;22232;50.914;13.858;2024-01-15T06:05:06;95757.91;;;-1.27;100.00
36190;BME280;22232;50.914;13.858;2024-01-15T06:07:35;95752.28;;;-1.38;100.00
36190;BME280;22232;50.914;13.858;2024-01-15T06:10:03;95751.28;;;-1.36;100.00
36190;BME280;22232;50.914;13.858;2024-01-15T06:12:34;95772.41;;;-1.45;100.00
36190;BME280;22232;50.914;13.858;2024-01-15T06:15:02;95756.72;;;-1.38;100.00
36190;BME280;22232;50.914;13.858;2024-01-15T06:17:30;95761.75;;;-1.36;100.00
36190;BME280;22232;50.914;13.858;2024-01-15T06:19:58;95750.88;;;-1.40;100.00
36190;BME280;22232;50.914;13.858;2024-01-15T06:22:26;95756.06;;;-1.27;100.00
36190;BME280;22232;50.914;13.858;2024-01-15T06:24:54;95762.31;;;-1.34;100.00
36190;BME280;22232;50.914;13.858;2024-01-15T06:27:23;95764.13;;;-1.35;100.00
36190;BME280;22232;50.914;13.858;2024-01-15T06:29:50;95766.16;;;-1.37;100.00
36190;BME280;22232;50.914;13.858;2024-01-15T06:32:18;95757.50;;;-1.38;100.00
36190;BME280;22232;50.914;13.858;2024-01-15T06:34:46;95743.81;;;-1.33;100.00
36190;BME280;22232;50.914;13.858;2024-01-15T06:37:13;95747.69;;;-1.42;100.00
36190;BME280;22232;50.914;13.858;2024-01-15T06:39:41;95734.00;;;-1.44;100.00
36190;BME280;22232;50.914;13.858;2024-01-15T06:42:09;95744.63;;;-1.32;100.00
36190;BME280;22232;50.914;13.858;2024-01-15T06:44:37;95734.34;;;-1.27;100.00
36190;BME280;22232;50.914;13.858;2024-01-15T06:47:05;95746.03;;;-1.30;100.00
36190;BME280;22232;50.914;13.858;2024-01-15T06:49:33;95744.03;;;-1.34;100.00
36190;BME280;22232;50.914;13.858;2024-01-15T06:52:00;95750.63;;;-1.25;100.00
36190;BME280;22232;50.914;13.858;2024-01-15T06:54:28;95738.38;;;-1.25;100.00
36190;BME280;22232;50.914;13.858;2024-01-15T06:56:57;95742.97;;;-1.20;100.00
36190;BME280;22232;50.914;13.858;2024-01-15T06:59:24;95735.34;;;-1.22;100.00
36190;BME280;22232;50.914;13.858;2024-01-15T07:01:52;95752.25;;;-1.24;100.00
36190;BME280;22232;50.914;13.858;2024-01-15T07:04:20;95732.91;;;-1.23;100.00
36190;BME280;22232;50.914;13.858;2024-01-15T07:06:48;95731.88;;;-1.09;100.00
36190;BME280;22232;50.914;13.858;2024-01-15T07:09:16;95744.16;;;-1.09;100.00
36190;BME280;22232;50.914;13.858;2024-01-15T07:11:45;95754.03;;;-1.18;100.00
36190;BME280;22232;50.914;13.858;2024-01-15T07:14:14;95739.75;;;-1.16;100.00
36190;BME280;22232;50.914;13.858;2024-01-15T07:16:41;95738.28;;;-1.05;100.00
36190;BME280;22232;50.914;13.858;2024-01-15T07:19:14;95741.75;;;-1.18;100.00
36190;BME280;22232;50.914;13.858;2024-01-15T07:21:42;95749.38;;;-1.16;100.00
36190;BME280;22232;50.914;13.858;2024-01-15T07:24:10;95742.72;;;-1.05;100.00
36190;BME280;22232;50.914;13.858;2024-01-15T07:26:38;95747.72;;;-1.04;100.00
36190;BME280;22232;50.914;13.858;2024-01-15T07:29:06;95746.91;;;-1.04;100.00
36190;BME280;22232;50.914;13.858;2024-01-15T07:31:34;95748.69;;;-0.98;100.00
36190;BME280;22232;50.914;13.858;2024-01-15T07:34:02;95754.78;;;-1.04;100.00
36190;BME280;22232;50.914;13.858;2024-01-15T07:36:30;95756.41;;;-1.10;100.00
36190;BME280;22232;50.914;13.858;2024-01-15T07:38:58;95771.03;;;-0.96;100.00
36190;BME280;22232;50.914;13.858;2024-01-15T07:41:25;95778.88;;;-0.96;100.00
36190;BME280;22232;50.914;13.858;2024-01-15T07:43:53;95798.41;;;-0.98;100.00
36190;BME280;22232;50.914;13.858;2024-01-15T07:46:21;95783.72;;;-0.93;100.00
36190;BME280;22232;50.914;13.858;2024-01-15T07:48:49;95772.63;;;-0.88;100.00
36190;BME280;22232;50.914;13.858;2024-01-15T07:51:19;95787.50;;;-0.82;100.00
36190;BME280;22232;50.914;13.858;2024-01-15T07:53:47;95791.91;;;-0.76;100.00
36190;BME280;22232;50.914;13.858;2024-01-15T07:56:14;95781.63;;;-0.77;100.00
36190;BME280;22232;50.914;13.858;2024-01-15T07:58:42;95787.69;;;-0.83;100.00
36190;BME280;22232;50.914;13.858;2024-01-15T08:01:10;95777.38;;;-0.72;100.00
36190;BME280;22232;50.914;13.858;2024-01-15T08:03:38;95790.38;;;-0.58;100.00
36190;BME280;22232;50.914;13.858;2024-01-15T08:06:06;95774.53;;;-0.63;100.00
36190;BME280;22232;50.914;13.858;2024-01-15T08:08:33;95787.97;;;-0.60;100.00
36190;BME280;22232;50.914;13.858;2024-01-15T08:11:01;95775.66;;;-0.53;100.00
36190;BME280;22232;50.914;13.858;2024-01-15T08:13:29;95779.66;;;-0.50;98.42
36190;BME280;22232;50.914;13.858;2024-01-15T08:15:58;95792.94;;;-0.45;99.49
36190;BME280;22232;50.914;13.858;2024-01-15T08:18:26;95781.41;;;-0.37;98.46
36190;BME280;22232;50.914;13.858;2024-01-15T08:20:54;95776.00;;;-0.42;97.09
36190;BME280;22232;50.914;13.858;2024-01-15T08:23:22;95774.59;;;-0.45;97.51
36190;BME280;22232;50.914;13.858;2024-01-15T08:25:49;95784.00;;;-0.37;96.35
36190;BME280;22232;50.914;13.858;2024-01-15T08:28:18;95778.28;;;-0.21;96.07
36190;BME280;22232;50.914;13.858;2024-01-15T08:30:46;95778.28;;;-0.21;95.68
36190;BME280;22232;50.914;13.858;2024-01-15T08:33:14;95781.47;;;-0.19;95.18
36190;BME280;22232;50.914;13.858;2024-01-15T08:35:48;95783.47;;;-0.14;94.34
36190;BME280;22232;50.914;13.858;2024-01-15T08:38:16;95776.81;;;-0.17;94.13
36190;BME280;22232;50.914;13.858;2024-01-15T08:40:44;95766.72;;;-0.13;93.52
36190;BME280;22232;50.914;13.858;2024-01-15T08:43:12;95761.22;;;-0.05;94.34
36190;BME280;22232;50.914;13.858;2024-01-15T08:45:39;95765.66;;;-0.06;92.51
36190;BME280;22232;50.914;13.858;2024-01-15T08:48:07;95773.31;;;-0.04;93.27
36190;BME280;22232;50.914;13.858;2024-01-15T08:50:35;95776.88;;;0.02;93.80
36190;BME280;22232;50.914;13.858;2024-01-15T08:53:03;95783.94;;;0.01;92.81
36190;BME280;22232;50.914;13.858;2024-01-15T08:55:31;95790.63;;;-0.03;93.24
36190;BME280;22232;50.914;13.858;2024-01-15T08:58:00;95782.72;;;0.04;92.92
36190;BME280;22232;50.914;13.858;2024-01-15T09:00:28;95782.19;;;-0.05;93.55
36190;BME280;22232;50.914;13.858;2024-01-15T09:02:56;95778.06;;;0.06;93.18
36190;BME280;22232;50.914;13.858;2024-01-15T09:05:24;95785.88;;;0.12;92.08
36190;BME280;22232;50.914;13.858;2024-01-15T09:07:52;95793.94;;;0.11;91.57
36190;BME280;22232;50.914;13.858;2024-01-15T09:10:20;95803.47;;;0.05;92.39
36190;BME280;22232;50.914;13.858;2024-01-15T09:12:48;95795.19;;;0.08;92.84
36190;BME280;22232;50.914;13.858;2024-01-15T09:15:17;95804.25;;;0.12;91.44
36190;BME280;22232;50.914;13.858;2024-01-15T09:17:45;95783.09;;;0.07;92.36
36190;BME280;22232;50.914;13.858;2024-01-15T09:20:13;95789.06;;;0.14;92.34
36190;BME280;22232;50.914;13.858;2024-01-15T09:22:42;95809.50;;;0.06;90.99
36190;BME280;22232;50.914;13.858;2024-01-15T09:25:10;95796.75;;;0.16;90.62
36190;BME280;22232;50.914;13.858;2024-01-15T09:27:37;95793.22;;;0.47;89.33
36190;BME280;22232;50.914;13.858;2024-01-15T09:30:06;95793.84;;;0.67;87.64
36190;BME280;22232;50.914;13.858;2024-01-15T09:32:34;95801.72;;;0.86;85.78
36190;BME280;22232;50.914;13.858;2024-01-15T09:35:02;95800.84;;;0.74;84.58
36190;BME280;22232;50.914;13.858;2024-01-15T09:37:30;95810.31;;;0.93;84.37
36190;BME280;22232;50.914;13.858;2024-01-15T09:40:14;95805.78;;;1.19;82.83
36190;BME280;22232;50.914;13.858;2024-01-15T09:42:45;95800.75;;;1.17;81.79
36190;BME280;22232;50.914;13.858;2024-01-15T09:45:14;95803.72;;;1.39;80.39
36190;BME280;22232;50.914;13.858;2024-01-15T09:47:43;95814.19;;;1.57;80.13
36190;BME280;22232;50.914;13.858;2024-01-15T09:50:13;95810.81;;;1.69;78.80
36190;BME280;22232;50.914;13.858;2024-01-15T09:52:44;95809.31;;;1.73;78.27
36190;BME280;22232;50.914;13.858;2024-01-15T09:55:13;95816.00;;;1.87;76.00
36190;BME280;22232;50.914;13.858;2024-01-15T09:57:44;95809.88;;;2.05;75.94
36190;BME280;22232;50.914;13.858;2024-01-15T10:00:15;95804.97;;;2.20;73.86
36190;BME280;22232;50.914;13.858;2024-01-15T10:02:45;95811.97;;;2.26;74.49
36190;BME280;22232;50.914;13.858;2024-01-15T10:05:13;95803.59;;;2.18;73.95
36190;BME280;22232;50.914;13.858;2024-01-15T10:07:42;95797.88;;;2.09;73.72
36190;BME280;22232;50.914;13.858;2024-01-15T10:10:11;95805.31;;;1.70;73.78
36190;BME280;22232;50.914;13.858;2024-01-15T10:12:39;95806.34;;;1.69;75.35
36190;BME280;22232;50.914;13.858;2024-01-15T10:15:09;95798.00;;;1.72;75.17
36190;BME280;22232;50.914;13.858;2024-01-15T10:17:39;95799.53;;;1.80;75.25
36190;BME280;22232;50.914;13.858;2024-01-15T10:20:11;95799.44;;;1.87;75.39
36190;BME280;22232;50.914;13.858;2024-01-15T10:22:41;95781.50;;;1.95;75.33
36190;BME280;22232;50.914;13.858;2024-01-15T10:25:10;95789.63;;;2.05;75.71
36190;BME280;22232;50.914;13.858;2024-01-15T10:27:38;95789.25;;;1.90;73.86
36190;BME280;22232;50.914;13.858;2024-01-15T10:30:09;95778.34;;;2.17;73.56
36190;BME280;22232;50.914;13.858;2024-01-15T10:32:37;95781.53;;;2.42;73.25
36190;BME280;22232;50.914;13.858;2024-01-15T10:35:07;95780.16;;;2.28;71.90
36190;BME280;22232;50.914;13.858;2024-01-15T10:37:35;95781.31;;;2.20;71.88
36190;BME280;22232;50.914;13.858;2024-01-15T10:40:03;95779.16;;;2.29;71.95
36190;BME280;22232;50.914;13.858;2024-01-15T10:42:32;95773.78;;;2.59;72.03
36190;BME280;22232;50.914;13.858;2024-01-15T10:45:01;95769.19;;;2.31;71.68
36190;BME280;22232;50.914;13.858;2024-01-15T10:47:29;95766.47;;;2.26;70.87
36190;BME280;22232;50.914;13.858;2024-01-15T10:49:58;95760.97;;;2.04;72.13
36190;BME280;22232;50.914;13.858;2024-01-15T10:52:28;95760.78;;;1.87;72.15
36190;BME280;22232;50.914;13.858;2024-01-15T10:54:58;95765.38;;;1.92;74.14
36190;BME280;22232;50.914;13.858;2024-01-15T10:57:34;95755.13;;;2.14;73.40
36190;BME280;22232;50.914;13.858;2024-01-15T11:00:02;95752.81;;;2.05;73.22
36190;BME280;22232;50.914;13.858;2024-01-15T11:02:35;95752.00;;;1.93;73.51
36190;BME280;22232;50.914;13.858;2024-01-15T11:05:03;95748.78;;;1.91;73.40
36190;BME280;22232;50.914;13.858;2024-01-15T11:07:32;95751.22;;;1.93;72.76
36190;BME280;22232;50.914;13.858;2024-01-15T11:10:03;95751.13;;;2.11;73.41
36190;BME280;22232;50.914;13.858;2024-01-15T11:12:32;95748.50;;;2.11;72.60
36190;BME280;22232;50.914;13.858;2024-01-15T11:15:03;95765.53;;;2.09;71.79
36190;BME280;22232;50.914;13.858;2024-01-15T11:17:59;95746.78;;;2.17;71.33
36190;BME280;22232;50.914;13.858;2024-01-15T11:20:31;95755.22;;;1.95;72.65
36190;BME280;22232;50.914;13.858;2024-01-15T11:23:00;95752.72;;;2.24;72.65
36190;BME280;22232;50.914;13.858;2024-01-15T11:25:35;95753.63;;;2.18;71.73
36190;BME280;22232;50.914;13.858;2024-01-15T11:28:05;95723.50;;;1.67;74.16
36190;BME280;22232;50.914;13.858;2024-01-15T11:30:32;95715.13;;;1.58;74.89
36190;BME280;22232;50.914;13.858;2024-01-15T11:33:04;95744.66;;;1.72;75.46
36190;BME280;22232;50.914;13.858;2024-01-15T11:35:50;95745.94;;;1.81;74.31
36190;BME280;22232;50.914;13.858;2024-01-15T11:38:27;95738.19;;;1.86;74.09
36190;BME280;22232;50.914;13.858;2024-01-15T11:40:58;95728.34;;;1.93;74.00
36190;BME280;22232;50.914;13.858;2024-01-15T11:43:28;95746.97;;;2.03;73.09
36190;BME280;22232;50.914;13.858;2024-01-15T11:46:01;95750.50;;;1.86;73.02
36190;BME280;22232;50.914;13.858;2024-01-15T11:48:39;95747.19;;;1.90;73.92
36190;BME280;22232;50.914;13.858;2024-01-15T11:51:11;95742.06;;;1.95;73.86
36190;BME280;22232;50.914;13.858;2024-01-15T11:53:44;95724.25;;;2.09;72.70
36190;BME280;22232;50.914;13.858;2024-01-15T11:56:16;95724.13;;;1.92;73.47
36190;BME280;22232;50.914;13.858;2024-01-15T11:58:44;95721.50;;;2.04;73.43
36190;BME280;22232;50.914;13.858;2024-01-15T12:01:12;95728.56;;;1.92;72.70
36190;BME280;22232;50.914;13.858;2024-01-15T12:03:40;95728.69;;;2.09;73.17
36190;BME280;22232;50.914;13.858;2024-01-15T12:06:09;95715.69;;;2.14;73.68
36190;BME280;22232;50.914;13.858;2024-01-15T12:08:37;95718.53;;;2.24;72.74
36190;BME280;22232;50.914;13.858;2024-01-15T12:11:07;95730.63;;;2.48;72.58
36190;BME280;22232;50.914;13.858;2024-01-15T12:13:38;95729.38;;;2.27;71.66
36190;BME280;22232;50.914;13.858;2024-01-15T12:16:06;95731.09;;;2.34;72.16
36190;BME280;22232;50.914;13.858;2024-01-15T12:18:34;95724.25;;;2.33;72.18
36190;BME280;22232;50.914;13.858;2024-01-15T12:21:04;95734.66;;;2.39;72.16
36190;BME280;22232;50.914;13.858;2024-01-15T12:23:31;95720.69;;;2.39;72.73
36190;BME280;22232;50.914;13.858;2024-01-15T12:26:01;95721.81;;;2.43;72.15
36190;BME280;22232;50.914;13.858;2024-01-15T12:28:28;95738.31;;;2.38;72.35
36190;BME280;22232;50.914;13.858;2024-01-15T12:30:57;95740.25;;;2.43;72.68
36190;BME280;22232;50.914;13.858;2024-01-15T12:33:27;95730.66;;;2.13;72.39
36190;BME280;22232;50.914;13.858;2024-01-15T12:35:55;95742.91;;;2.19;74.05
36190;BME280;22232;50.914;13.858;2024-01-15T12:38:23;95744.63;;;2.25;73.98
36190;BME280;22232;50.914;13.858;2024-01-15T12:40:51;95736.47;;;2.15;74.98
36190;BME280;22232;50.914;13.858;2024-01-15T12:43:18;95753.63;;;2.06;74.97
36190;BME280;22232;50.914;13.858;2024-01-15T12:45:47;95742.31;;;2.17;74.81
36190;BME280;22232;50.914;13.858;2024-01-15T12:48:15;95744.00;;;2.00;76.64
36190;BME280;22232;50.914;13.858;2024-01-15T12:50:46;95741.94;;;1.90;76.00
36190;BME280;22232;50.914;13.858;2024-01-15T12:53:15;95741.50;;;1.93;76.93
36190;BME280;22232;50.914;13.858;2024-01-15T12:55:43;95747.16;;;1.67;78.18